This is the latest recevied weather packets stored in our database for station/object IZ0VWB-3. If no packets are shown the sender has not sent any weather packets the latest 10 day(s).
| Time | Temp. | Humidity | Pressure | Rain* | Wind** | Luminosity | Snow |
|---|---|---|---|---|---|---|---|
| 1777495097 | 15.56° C | 47% | 1003 hPa | 0 mm | - | - | - |
| 1777494498 | 15.56° C | 50% | 1002.9 hPa | 0 mm | - | - | - |
| 1777493896 | 16.11° C | 48% | 1002.9 hPa | 0 mm | - | - | - |
| 1777493297 | 15.56° C | 50% | 1002.8 hPa | 0 mm | - | - | - |
| 1777492696 | 15.56° C | 50% | 1002.8 hPa | 0 mm | - | - | - |
| 1777492097 | 15.56° C | 50% | 1002.7 hPa | 0 mm | - | - | - |
| 1777491496 | 16.11° C | 48% | 1002.6 hPa | 0 mm | - | - | - |
| 1777490897 | 16.67° C | 47% | 1002.6 hPa | 0 mm | - | - | - |
| 1777490297 | 16.67° C | 48% | 1002.5 hPa | 0 mm | - | - | - |
| 1777489697 | 16.67° C | 48% | 1002.3 hPa | 0 mm | - | - | - |
| 1777489098 | 17.22° C | 47% | 1002.2 hPa | 0 mm | - | - | - |
| 1777488496 | 17.22° C | 48% | 1002.3 hPa | 0 mm | - | - | - |
| 1777487897 | 16.67° C | 49% | 1002.1 hPa | 0 mm | - | - | - |
| 1777487298 | 17.78° C | 49% | 1002 hPa | 0 mm | - | - | - |
| 1777486696 | 18.33° C | 47% | 1001.9 hPa | 0 mm | - | - | - |
| 1777486095 | 18.33° C | 46% | 1001.8 hPa | 0 mm | - | - | - |
| 1777485496 | 18.89° C | 45% | 1001.8 hPa | 0 mm | - | - | - |
| 1777484897 | 19.44° C | 44% | 1001.8 hPa | 0 mm | - | - | - |
| 1777484296 | 19.44° C | 43% | 1001.6 hPa | 0 mm | - | - | - |
| 1777483697 | 19.44° C | 41% | 1001.6 hPa | 0 mm | - | - | - |
| 1777483097 | 20° C | 39% | 1001.6 hPa | 0 mm | - | - | - |
| 1777482492 | 20.56° C | 37% | 1001.6 hPa | 0 mm | - | - | - |
| 1777481890 | 21.11° C | 36% | 1001.6 hPa | 0 mm | - | - | - |
| 1777481290 | 21.11° C | 36% | 1001.5 hPa | 0 mm | - | - | - |
| 1777480691 | 21.11° C | 34% | 1001.6 hPa | 0 mm | - | - | - |
* Rain latest hour (hover to see other rain measurements)
** Current wind speed in m/s (hover to see current wind gust speed)